Time;durP1;ratioP1;P1;durP2;ratioP2;P2;SDS_P1;SDS_P2;PMS_P1;PMS_P2;Temp;Humidity;BMP_temperature;BMP_pressure;BME280_temperature;BME280_humidity;BME280_pressure;Samples;Min_cycle;Max_cycle;Signal;HPM_P1;HPM_P2
2023/06/15 00:01:19;;;;;;;7.18;2.35;;;;;;;;;;4997500;28;20088;-59
2023/06/15 00:03:45;;;;;;;6.00;2.72;;;;;;;;;;4996297;28;20037;-59
2023/06/15 00:06:11;;;;;;;8.15;2.90;;;;;;;;;;4997132;28;20203;-59
2023/06/15 00:08:37;;;;;;;7.30;3.08;;;;;;;;;;4996710;28;20045;-59
2023/06/15 00:11:03;;;;;;;7.53;2.20;;;;;;;;;;4996834;28;20038;-59
2023/06/15 00:13:29;;;;;;;6.60;2.60;;;;;;;;;;4997019;28;20766;-59
2023/06/15 00:15:55;;;;;;;6.18;2.70;;;;;;;;;;4996041;28;20607;-59
2023/06/15 00:18:22;;;;;;;7.47;2.63;;;;;;;;;;4997342;28;21711;-59
2023/06/15 00:20:48;;;;;;;5.13;2.30;;;;;;;;;;4997705;28;20046;-59
2023/06/15 00:23:17;;;;;;;5.20;2.10;;;;;;;;;;4997549;28;20038;-59
2023/06/15 00:25:43;;;;;;;6.60;2.28;;;;;;;;;;4995999;28;20087;-59
2023/06/15 00:28:09;;;;;;;6.72;2.45;;;;;;;;;;4997389;28;20048;-59
2023/06/15 00:30:35;;;;;;;8.20;2.60;;;;;;;;;;4997463;28;20033;-59
2023/06/15 00:33:01;;;;;;;6.55;2.90;;;;;;;;;;4996178;28;20485;-59
2023/06/15 00:35:27;;;;;;;6.10;3.05;;;;;;;;;;4996366;28;20117;-59
2023/06/15 00:37:53;;;;;;;6.90;2.50;;;;;;;;;;4997570;28;20037;-59
2023/06/15 00:40:19;;;;;;;7.40;2.75;;;;;;;;;;4996339;28;20042;-59
2023/06/15 00:42:46;;;;;;;6.55;2.78;;;;;;;;;;4997776;28;20045;-59
2023/06/15 00:45:12;;;;;;;9.45;2.65;;;;;;;;;;4996250;28;20676;-59
2023/06/15 00:47:39;;;;;;;6.28;2.78;;;;;;;;;;4996871;28;21374;-59
2023/06/15 00:50:18;;;;;;;5.55;2.38;;;;;;;;;;4997410;28;20037;-59
2023/06/15 00:52:44;;;;;;;6.57;2.58;;;;;;;;;;4998102;28;20717;-59
2023/06/15 00:55:13;;;;;;;5.53;2.60;;;;;;;;;;4996728;28;20042;-59
2023/06/15 00:57:44;;;;;;;12.10;3.28;;;;;;;;;;4996888;28;20160;-59
2023/06/15 01:00:12;;;;;;;6.43;2.95;;;;;;;;;;4997898;28;20042;-59
2023/06/15 01:02:39;;;;;;;4.70;2.15;;;;;;;;;;4996846;28;21744;-59
2023/06/15 01:05:05;;;;;;;5.22;2.50;;;;;;;;;;4997010;28;20037;-59
2023/06/15 01:07:35;;;;;;;5.70;3.17;;;;;;;;;;4995836;28;20038;-59
2023/06/15 01:10:02;;;;;;;10.38;3.15;;;;;;;;;;4996457;28;20041;-59
2023/06/15 01:12:28;;;;;;;6.00;2.80;;;;;;;;;;4994722;28;21745;-59
2023/06/15 01:14:55;;;;;;;5.30;2.50;;;;;;;;;;4993362;28;20123;-59
2023/06/15 01:17:23;;;;;;;7.65;2.88;;;;;;;;;;4995696;28;20038;-59
2023/06/15 01:20:04;;;;;;;7.07;2.78;;;;;;;;;;4995516;28;21191;-59
2023/06/15 01:22:49;;;;;;;6.63;2.63;;;;;;;;;;4996955;28;20127;-59
2023/06/15 01:25:26;;;;;;;6.47;2.70;;;;;;;;;;4996089;28;20056;-59
2023/06/15 01:27:59;;;;;;;6.90;2.63;;;;;;;;;;4996082;28;20157;-59
2023/06/15 01:30:26;;;;;;;6.80;3.05;;;;;;;;;;4996915;28;20037;-59
2023/06/15 01:32:56;;;;;;;5.68;3.17;;;;;;;;;;4996579;28;20026;-59
2023/06/15 01:35:22;;;;;;;7.28;2.60;;;;;;;;;;4996881;28;20038;-59
2023/06/15 01:37:48;;;;;;;6.25;2.75;;;;;;;;;;4996792;28;20057;-59
2023/06/15 01:40:15;;;;;;;4.80;2.53;;;;;;;;;;4996831;28;20492;-59
2023/06/15 01:42:41;;;;;;;6.32;3.10;;;;;;;;;;4998820;28;20083;-59
2023/06/15 01:45:08;;;;;;;8.57;2.78;;;;;;;;;;4999961;28;20118;-59
2023/06/15 01:47:34;;;;;;;6.90;3.05;;;;;;;;;;4998756;28;20980;-59
2023/06/15 01:50:01;;;;;;;7.05;2.80;;;;;;;;;;4998156;28;20029;-59
2023/06/15 01:52:27;;;;;;;6.25;2.78;;;;;;;;;;4999451;28;20045;-59
2023/06/15 01:54:53;;;;;;;7.00;2.92;;;;;;;;;;5014293;28;20064;-59
2023/06/15 01:57:20;;;;;;;7.20;2.90;;;;;;;;;;4998627;28;20029;-59
2023/06/15 01:59:46;;;;;;;7.60;3.42;;;;;;;;;;5000319;28;20041;-59
2023/06/15 02:02:12;;;;;;;5.93;3.05;;;;;;;;;;5000045;28;20037;-59
2023/06/15 02:04:38;;;;;;;6.57;3.03;;;;;;;;;;4998588;28;20029;-59
2023/06/15 02:07:04;;;;;;;5.93;2.78;;;;;;;;;;4999857;28;20038;-59
2023/06/15 02:09:30;;;;;;;9.07;3.35;;;;;;;;;;4998657;28;20045;-59
2023/06/15 02:11:57;;;;;;;7.63;3.03;;;;;;;;;;5000051;28;20034;-59
2023/06/15 02:14:24;;;;;;;6.75;2.78;;;;;;;;;;4997531;28;20038;-59
2023/06/15 02:16:50;;;;;;;10.13;3.92;;;;;;;;;;4999061;28;20053;-59
2023/06/15 02:19:23;;;;;;;6.30;2.97;;;;;;;;;;5000038;28;20112;-59
2023/06/15 02:21:50;;;;;;;5.88;2.92;;;;;;;;;;4999399;28;20053;-59
2023/06/15 02:24:16;;;;;;;7.18;2.65;;;;;;;;;;4998821;28;20061;-59
2023/06/15 02:26:42;;;;;;;7.05;3.00;;;;;;;;;;4999812;28;20029;-59
2023/06/15 02:29:09;;;;;;;7.18;3.70;;;;;;;;;;4999404;28;20057;-59
2023/06/15 02:31:36;;;;;;;8.52;3.10;;;;;;;;;;5000463;28;21166;-59
2023/06/15 02:34:02;;;;;;;8.77;3.30;;;;;;;;;;4999753;28;20040;-59
2023/06/15 02:36:28;;;;;;;8.82;3.40;;;;;;;;;;4999580;28;20037;-59
2023/06/15 02:38:55;;;;;;;6.60;3.42;;;;;;;;;;4997917;28;20044;-59
2023/06/15 02:41:21;;;;;;;7.25;2.92;;;;;;;;;;4999716;28;20036;-59
2023/06/15 02:43:47;;;;;;;8.20;3.25;;;;;;;;;;4999746;28;20034;-59
2023/06/15 02:46:13;;;;;;;6.28;2.90;;;;;;;;;;4998420;28;20152;-59
2023/06/15 02:48:40;;;;;;;7.18;2.92;;;;;;;;;;4997181;28;20065;-59
2023/06/15 02:51:07;;;;;;;6.85;3.33;;;;;;;;;;4998570;28;20029;-59
2023/06/15 02:53:33;;;;;;;8.90;3.20;;;;;;;;;;4998573;28;20095;-59
2023/06/15 02:56:02;;;;;;;5.95;3.17;;;;;;;;;;4999072;28;20042;-59
2023/06/15 02:58:32;;;;;;;6.78;3.45;;;;;;;;;;4998277;28;20041;-59
2023/06/15 03:01:00;;;;;;;8.27;3.35;;;;;;;;;;4999751;28;20057;-59
2023/06/15 03:03:30;;;;;;;6.68;3.58;;;;;;;;;;4999307;28;20625;-59
2023/06/15 03:05:56;;;;;;;7.95;3.47;;;;;;;;;;4997877;28;20065;-59
2023/06/15 03:08:31;;;;;;;5.53;3.40;;;;;;;;;;4997342;28;20788;-59
2023/06/15 03:10:58;;;;;;;6.03;4.20;;;;;;;;;;4998247;28;20026;-58
2023/06/15 03:13:24;;;;;;;7.28;2.97;;;;;;;;;;4998396;28;20026;-58
2023/06/15 03:15:50;;;;;;;8.43;3.83;;;;;;;;;;4997889;28;20495;-59
2023/06/15 03:18:16;;;;;;;7.85;3.60;;;;;;;;;;4996952;28;20085;-59
2023/06/15 03:20:43;;;;;;;6.43;3.45;;;;;;;;;;5004763;28;20037;-59
2023/06/15 03:23:13;;;;;;;7.97;3.83;;;;;;;;;;4996984;28;20287;-59
2023/06/15 03:25:39;;;;;;;6.45;3.95;;;;;;;;;;4997533;28;20030;-59
2023/06/15 03:28:05;;;;;;;7.47;3.72;;;;;;;;;;4998378;28;21131;-59
2023/06/15 03:30:31;;;;;;;9.02;4.10;;;;;;;;;;4997789;28;20038;-58
2023/06/15 03:32:59;;;;;;;8.32;3.92;;;;;;;;;;4998283;28;20033;-59
2023/06/15 03:35:26;;;;;;;9.07;3.88;;;;;;;;;;4998410;28;21303;-59
2023/06/15 03:37:53;;;;;;;7.65;3.90;;;;;;;;;;4996787;28;20111;-58
2023/06/15 03:40:19;;;;;;;6.68;3.88;;;;;;;;;;4997207;28;20710;-59
2023/06/15 03:42:45;;;;;;;5.82;3.50;;;;;;;;;;4997707;28;20065;-59
2023/06/15 03:45:11;;;;;;;9.18;3.80;;;;;;;;;;4997855;28;20393;-59
2023/06/15 03:47:37;;;;;;;6.00;3.65;;;;;;;;;;4995011;28;20034;-59
2023/06/15 03:50:06;;;;;;;7.15;4.00;;;;;;;;;;4996256;28;20584;-58
2023/06/15 03:52:33;;;;;;;6.97;4.03;;;;;;;;;;4995142;28;20042;-59
2023/06/15 03:55:00;;;;;;;8.13;3.63;;;;;;;;;;4996854;28;20025;-58
2023/06/15 03:57:26;;;;;;;9.73;4.05;;;;;;;;;;4996766;28;20041;-59
2023/06/15 03:59:52;;;;;;;7.50;3.92;;;;;;;;;;4995620;28;21747;-58
2023/06/15 04:02:18;;;;;;;9.68;3.70;;;;;;;;;;4996763;28;20125;-59
2023/06/15 04:04:44;;;;;;;8.07;4.30;;;;;;;;;;4997327;28;20073;-59
2023/06/15 04:07:10;;;;;;;7.75;3.92;;;;;;;;;;4996370;28;20050;-59
2023/06/15 04:09:37;;;;;;;7.00;3.85;;;;;;;;;;4993623;28;20029;-59
2023/06/15 04:12:03;;;;;;;6.60;3.47;;;;;;;;;;4997053;28;20034;-59
2023/06/15 04:14:30;;;;;;;8.63;4.03;;;;;;;;;;4995288;28;20477;-59
2023/06/15 04:16:56;;;;;;;8.07;3.72;;;;;;;;;;4995488;28;20053;-59
2023/06/15 04:19:22;;;;;;;9.75;4.13;;;;;;;;;;4997126;28;20068;-59
2023/06/15 04:21:49;;;;;;;7.15;3.63;;;;;;;;;;4997904;28;20033;-59
2023/06/15 04:24:15;;;;;;;8.13;3.22;;;;;;;;;;4996309;28;20054;-59
2023/06/15 04:26:44;;;;;;;6.22;3.90;;;;;;;;;;4997740;28;20576;-59
2023/06/15 04:29:10;;;;;;;9.18;3.88;;;;;;;;;;4995917;28;20034;-59
2023/06/15 04:31:37;;;;;;;9.32;3.30;;;;;;;;;;4997368;28;20030;-59
2023/06/15 04:34:04;;;;;;;11.32;4.10;;;;;;;;;;4997076;28;20120;-59
2023/06/15 04:36:31;;;;;;;8.35;3.50;;;;;;;;;;4996564;28;20037;-59
2023/06/15 04:38:57;;;;;;;6.22;3.60;;;;;;;;;;4996515;28;20037;-59
2023/06/15 04:41:24;;;;;;;6.38;3.65;;;;;;;;;;4996338;28;20038;-59
2023/06/15 04:43:51;;;;;;;6.43;3.70;;;;;;;;;;4996014;28;20038;-59
2023/06/15 04:46:17;;;;;;;8.40;3.88;;;;;;;;;;4995369;28;20048;-59
2023/06/15 04:48:44;;;;;;;8.80;3.70;;;;;;;;;;4995636;28;20037;-60
2023/06/15 04:51:13;;;;;;;7.80;4.25;;;;;;;;;;4995659;28;20068;-59
2023/06/15 04:53:42;;;;;;;8.88;4.00;;;;;;;;;;4996269;28;20048;-59
2023/06/15 04:56:08;;;;;;;8.10;4.00;;;;;;;;;;4996166;28;20044;-59
2023/06/15 04:58:34;;;;;;;8.23;4.20;;;;;;;;;;4996572;28;20366;-59
2023/06/15 05:01:00;;;;;;;7.65;3.97;;;;;;;;;;4996638;28;20030;-59
2023/06/15 05:03:27;;;;;;;7.68;3.78;;;;;;;;;;4996934;28;20152;-59
2023/06/15 05:05:53;;;;;;;9.25;3.72;;;;;;;;;;4995865;28;20046;-59
2023/06/15 05:08:19;;;;;;;9.82;3.60;;;;;;;;;;4996878;28;20072;-58
2023/06/15 05:10:45;;;;;;;8.75;3.92;;;;;;;;;;4996011;28;20034;-59
2023/06/15 05:13:11;;;;;;;8.15;3.90;;;;;;;;;;4996417;28;20036;-59
2023/06/15 05:15:37;;;;;;;6.75;3.65;;;;;;;;;;5000164;28;20041;-59
2023/06/15 05:18:04;;;;;;;7.95;3.83;;;;;;;;;;4997234;28;20085;-59
2023/06/15 05:20:30;;;;;;;8.85;3.90;;;;;;;;;;4992522;28;20041;-59
2023/06/15 05:22:56;;;;;;;7.00;3.55;;;;;;;;;;4999590;28;20025;-59
2023/06/15 05:25:22;;;;;;;10.95;4.07;;;;;;;;;;5000577;28;20029;-59
2023/06/15 05:27:48;;;;;;;7.43;3.55;;;;;;;;;;5000048;28;20033;-59
2023/06/15 05:30:15;;;;;;;7.45;3.65;;;;;;;;;;5000441;28;20072;-59
2023/06/15 05:32:41;;;;;;;9.75;3.58;;;;;;;;;;4997586;28;20154;-59
2023/06/15 05:35:07;;;;;;;9.85;3.78;;;;;;;;;;4999657;28;20026;-59
2023/06/15 05:37:37;;;;;;;12.10;3.38;;;;;;;;;;4999728;28;20033;-58
2023/06/15 05:40:04;;;;;;;9.73;3.70;;;;;;;;;;4999387;28;20042;-59
2023/06/15 05:42:30;;;;;;;7.30;3.17;;;;;;;;;;4999764;28;20084;-59
2023/06/15 05:44:56;;;;;;;8.55;2.90;;;;;;;;;;5000725;28;20937;-59
2023/06/15 05:47:23;;;;;;;9.27;3.40;;;;;;;;;;4998755;28;20038;-59
2023/06/15 05:49:49;;;;;;;10.07;3.30;;;;;;;;;;4999465;28;20057;-59
2023/06/15 05:52:17;;;;;;;6.57;3.15;;;;;;;;;;5000403;28;20025;-59
2023/06/15 05:54:44;;;;;;;7.47;3.58;;;;;;;;;;5000096;28;20030;-59
2023/06/15 05:57:10;;;;;;;6.25;2.80;;;;;;;;;;4999605;28;20040;-59
2023/06/15 05:59:37;;;;;;;9.15;3.20;;;;;;;;;;4998081;28;20058;-59
2023/06/15 06:02:03;;;;;;;5.53;2.55;;;;;;;;;;4998051;28;20074;-59
2023/06/15 06:04:29;;;;;;;8.68;2.40;;;;;;;;;;4998311;28;20030;-59
2023/06/15 06:06:55;;;;;;;9.00;2.75;;;;;;;;;;4998378;28;20137;-59
2023/06/15 06:09:21;;;;;;;3.88;1.95;;;;;;;;;;4998818;28;20042;-59
2023/06/15 06:11:48;;;;;;;8.32;2.78;;;;;;;;;;4999651;28;20069;-59
2023/06/15 06:14:14;;;;;;;5.20;2.22;;;;;;;;;;4998993;28;20983;-58
2023/06/15 06:16:40;;;;;;;6.80;2.40;;;;;;;;;;4999172;28;20046;-59
2023/06/15 06:19:06;;;;;;;5.55;2.35;;;;;;;;;;4999679;28;20037;-59
2023/06/15 06:21:33;;;;;;;8.50;2.50;;;;;;;;;;4999653;28;20121;-59
2023/06/15 06:23:59;;;;;;;4.00;1.70;;;;;;;;;;4997624;28;20096;-59
2023/06/15 06:26:25;;;;;;;7.82;2.33;;;;;;;;;;4998816;28;20113;-59
2023/06/15 06:28:52;;;;;;;6.97;2.63;;;;;;;;;;4998623;28;20030;-58
2023/06/15 06:31:18;;;;;;;7.00;2.35;;;;;;;;;;4997915;28;20113;-59
2023/06/15 06:33:44;;;;;;;5.60;2.00;;;;;;;;;;4986793;28;20038;-59
2023/06/15 06:36:10;;;;;;;4.15;2.20;;;;;;;;;;4990513;28;20026;-59
2023/06/15 06:38:36;;;;;;;4.95;2.10;;;;;;;;;;4987554;28;20035;-59
2023/06/15 06:41:02;;;;;;;8.82;2.20;;;;;;;;;;4990687;28;20045;-59
2023/06/15 06:43:29;;;;;;;4.57;2.08;;;;;;;;;;4990846;28;20223;-59
2023/06/15 06:45:55;;;;;;;4.75;2.08;;;;;;;;;;4989560;28;20025;-59
2023/06/15 06:48:21;;;;;;;6.95;2.40;;;;;;;;;;4990933;28;20084;-59
2023/06/15 06:50:47;;;;;;;6.15;2.33;;;;;;;;;;4990120;28;20025;-59
2023/06/15 06:53:14;;;;;;;5.93;2.40;;;;;;;;;;4990380;28;20541;-59
2023/06/15 06:55:42;;;;;;;4.32;2.05;;;;;;;;;;4990886;28;20042;-59
2023/06/15 06:58:08;;;;;;;7.72;2.17;;;;;;;;;;4990312;28;20037;-59
2023/06/15 07:00:34;;;;;;;6.85;1.92;;;;;;;;;;4991621;28;20041;-59
2023/06/15 07:03:00;;;;;;;9.55;2.40;;;;;;;;;;4989920;28;20127;-59
2023/06/15 07:05:26;;;;;;;5.25;2.22;;;;;;;;;;4990881;28;20120;-59
2023/06/15 07:07:52;;;;;;;11.00;2.35;;;;;;;;;;4989873;28;21166;-59
2023/06/15 07:10:19;;;;;;;9.30;2.30;;;;;;;;;;4991162;28;20113;-59
2023/06/15 07:12:45;;;;;;;8.88;2.53;;;;;;;;;;4989232;28;20106;-59
2023/06/15 07:15:11;;;;;;;5.97;1.90;;;;;;;;;;4988691;28;20049;-59
2023/06/15 07:17:37;;;;;;;7.97;2.55;;;;;;;;;;4987808;28;20072;-59
2023/06/15 07:20:03;;;;;;;7.00;2.22;;;;;;;;;;4990875;28;20064;-59
2023/06/15 07:22:29;;;;;;;7.88;2.50;;;;;;;;;;4989854;28;20095;-59
2023/06/15 07:24:55;;;;;;;5.68;2.42;;;;;;;;;;4990992;28;20049;-59
2023/06/15 07:27:21;;;;;;;11.00;2.75;;;;;;;;;;4989590;28;20449;-59
2023/06/15 07:29:48;;;;;;;7.72;2.45;;;;;;;;;;4989871;28;20064;-59
2023/06/15 07:32:14;;;;;;;4.95;1.92;;;;;;;;;;4986518;28;20120;-59
2023/06/15 07:34:40;;;;;;;5.72;2.00;;;;;;;;;;4990407;28;20044;-59
2023/06/15 07:37:07;;;;;;;8.48;2.60;;;;;;;;;;4995466;28;20030;-59
2023/06/15 07:39:34;;;;;;;4.40;2.15;;;;;;;;;;4998212;28;20041;-59
2023/06/15 07:42:01;;;;;;;6.40;2.30;;;;;;;;;;4997497;28;20053;-59
2023/06/15 07:44:27;;;;;;;8.23;2.47;;;;;;;;;;4997877;28;20029;-59
2023/06/15 07:46:53;;;;;;;5.82;2.10;;;;;;;;;;4996542;28;20034;-59
2023/06/15 07:49:19;;;;;;;5.35;2.65;;;;;;;;;;4997692;28;20029;-59
2023/06/15 07:51:45;;;;;;;5.55;2.30;;;;;;;;;;4997804;28;20601;-59
2023/06/15 07:54:11;;;;;;;5.30;1.90;;;;;;;;;;4998572;28;20132;-59
2023/06/15 07:56:38;;;;;;;7.45;2.03;;;;;;;;;;4995863;28;20121;-59
2023/06/15 07:59:04;;;;;;;3.42;1.75;;;;;;;;;;4997669;28;20026;-59
2023/06/15 08:01:30;;;;;;;4.32;2.03;;;;;;;;;;4997746;28;20048;-59
2023/06/15 08:03:56;;;;;;;4.32;1.70;;;;;;;;;;4997742;28;20042;-59
2023/06/15 08:06:22;;;;;;;6.43;2.30;;;;;;;;;;4997823;28;20057;-59
2023/06/15 08:08:49;;;;;;;14.40;3.15;;;;;;;;;;4995375;28;20103;-59
2023/06/15 08:11:16;;;;;;;5.15;2.10;;;;;;;;;;4993924;28;20481;-59
2023/06/15 08:13:43;;;;;;;6.50;2.17;;;;;;;;;;4995999;28;20034;-59
2023/06/15 08:16:09;;;;;;;7.18;1.88;;;;;;;;;;5003589;28;20540;-59
2023/06/15 08:18:35;;;;;;;8.25;2.10;;;;;;;;;;4996117;28;20045;-59
2023/06/15 08:21:01;;;;;;;4.55;1.77;;;;;;;;;;4996875;28;20412;-59
2023/06/15 08:23:28;;;;;;;7.82;2.10;;;;;;;;;;4997816;28;21746;-60
2023/06/15 08:25:54;;;;;;;4.30;1.95;;;;;;;;;;4997578;28;20033;-59
2023/06/15 08:28:20;;;;;;;6.90;1.73;;;;;;;;;;4998043;28;20049;-59
2023/06/15 08:30:46;;;;;;;12.10;2.30;;;;;;;;;;4997624;28;20067;-59
2023/06/15 08:33:12;;;;;;;4.57;1.90;;;;;;;;;;4997941;28;20044;-59
2023/06/15 08:35:39;;;;;;;4.82;1.90;;;;;;;;;;4997753;28;20026;-60
2023/06/15 08:38:05;;;;;;;4.47;1.90;;;;;;;;;;4997685;28;20034;-60
2023/06/15 08:40:31;;;;;;;4.65;2.00;;;;;;;;;;4996813;28;20037;-59
2023/06/15 08:42:57;;;;;;;4.78;1.85;;;;;;;;;;4997327;28;20048;-60
2023/06/15 08:45:24;;;;;;;5.28;2.22;;;;;;;;;;4997537;28;20041;-60
2023/06/15 08:47:53;;;;;;;4.40;2.20;;;;;;;;;;5000130;28;21161;-60
2023/06/15 08:50:19;;;;;;;6.18;2.22;;;;;;;;;;5004707;28;20034;-59
2023/06/15 08:52:46;;;;;;;6.82;1.95;;;;;;;;;;5003722;28;20112;-60
2023/06/15 08:55:15;;;;;;;7.15;2.08;;;;;;;;;;5003867;28;20064;-60
2023/06/15 08:57:42;;;;;;;6.40;2.08;;;;;;;;;;5003488;28;20069;-60
2023/06/15 09:00:09;;;;;;;5.30;1.90;;;;;;;;;;5003313;28;20484;-60
2023/06/15 09:02:40;;;;;;;5.72;2.00;;;;;;;;;;5003694;28;20037;-60
2023/06/15 09:05:07;;;;;;;7.50;1.90;;;;;;;;;;5003728;28;20029;-60
2023/06/15 09:07:34;;;;;;;4.60;2.13;;;;;;;;;;5002763;28;20021;-60
2023/06/15 09:10:16;;;;;;;4.18;2.10;;;;;;;;;;5004340;28;20492;-59
2023/06/15 09:12:47;;;;;;;6.40;2.00;;;;;;;;;;5003757;28;20033;-59
2023/06/15 09:15:20;;;;;;;3.88;1.90;;;;;;;;;;5004294;28;21770;-60
2023/06/15 09:17:46;;;;;;;;;;;;;;;;;;5004283;28;20056;-59
2023/06/15 09:20:13;;;;;;;5.70;2.05;;;;;;;;;;5004013;28;20003;-59
2023/06/15 09:22:43;;;;;;;7.97;2.38;;;;;;;;;;5003554;28;20041;-60
2023/06/15 09:25:13;;;;;;;6.53;2.20;;;;;;;;;;5003445;28;20121;-59
2023/06/15 09:27:39;;;;;;;5.32;2.20;;;;;;;;;;5003828;28;20036;-60
2023/06/15 09:30:07;;;;;;;7.63;2.20;;;;;;;;;;5004076;28;20034;-59
2023/06/15 09:32:33;;;;;;;4.60;2.13;;;;;;;;;;5003778;28;20948;-60
2023/06/15 09:34:59;;;;;;;7.47;2.10;;;;;;;;;;5003240;28;20033;-59
2023/06/15 09:37:27;;;;;;;6.03;2.03;;;;;;;;;;5003772;28;21366;-60
2023/06/15 09:39:53;;;;;;;5.97;2.35;;;;;;;;;;5003078;28;20029;-60
2023/06/15 09:42:25;;;;;;;4.32;1.83;;;;;;;;;;5003820;28;20052;-60
2023/06/15 09:44:59;;;;;;;6.82;2.60;;;;;;;;;;5003940;28;20062;-60
2023/06/15 09:47:31;;;;;;;6.72;2.55;;;;;;;;;;5003739;28;20026;-60
2023/06/15 09:49:58;;;;;;;5.00;2.10;;;;;;;;;;5003741;28;20044;-60
2023/06/15 09:52:25;;;;;;;5.72;2.10;;;;;;;;;;5003806;28;20038;-60
2023/06/15 09:54:52;;;;;;;4.68;2.35;;;;;;;;;;5002310;28;20037;-60
2023/06/15 09:57:19;;;;;;;5.95;2.30;;;;;;;;;;5003407;28;20030;-59
2023/06/15 09:59:48;;;;;;;5.10;2.03;;;;;;;;;;5000099;28;20042;-60
2023/06/15 10:02:17;;;;;;;7.68;2.33;;;;;;;;;;4999731;28;20131;-60
2023/06/15 10:04:45;;;;;;;3.83;2.00;;;;;;;;;;4998245;28;20255;-60
2023/06/15 10:07:12;;;;;;;5.32;2.25;;;;;;;;;;4999847;28;20719;-60
2023/06/15 10:09:44;;;;;;;4.07;2.25;;;;;;;;;;4998890;28;20088;-60
2023/06/15 10:12:16;;;;;;;7.97;2.95;;;;;;;;;;5000565;28;20060;-60
2023/06/15 10:14:50;;;;;;;6.90;2.80;;;;;;;;;;4999671;28;20137;-60
2023/06/15 10:17:16;;;;;;;6.28;2.50;;;;;;;;;;4996693;28;20042;-60
2023/06/15 10:19:44;;;;;;;4.35;2.20;;;;;;;;;;4998302;28;20056;-60
2023/06/15 10:22:19;;;;;;;7.97;2.40;;;;;;;;;;4998322;28;20066;-60
2023/06/15 10:24:46;;;;;;;6.45;2.63;;;;;;;;;;4997934;28;20049;-60
2023/06/15 10:27:12;;;;;;;5.60;2.20;;;;;;;;;;4997895;28;20037;-60
2023/06/15 10:29:51;;;;;;;5.78;2.08;;;;;;;;;;4996568;28;20026;-60
2023/06/15 10:32:36;;;;;;;7.13;2.17;;;;;;;;;;4998338;28;20041;-60
2023/06/15 10:35:03;;;;;;;3.75;2.05;;;;;;;;;;4995184;28;20025;-60
2023/06/15 10:37:32;;;;;;;6.32;2.45;;;;;;;;;;4990446;28;20072;-60
2023/06/15 10:40:01;;;;;;;6.00;2.08;;;;;;;;;;4992471;28;20044;-60
2023/06/15 10:42:27;;;;;;;6.95;2.22;;;;;;;;;;4990742;28;20088;-60
2023/06/15 10:44:53;;;;;;;4.93;2.30;;;;;;;;;;4991771;28;20030;-60
2023/06/15 10:47:22;;;;;;;6.43;2.13;;;;;;;;;;4990914;28;20033;-59
2023/06/15 10:49:49;;;;;;;4.90;2.20;;;;;;;;;;4992039;28;20034;-59
2023/06/15 10:52:16;;;;;;;8.27;2.08;;;;;;;;;;4990864;28;20395;-59
2023/06/15 10:54:42;;;;;;;4.53;2.08;;;;;;;;;;4991221;28;20033;-60
2023/06/15 10:57:08;;;;;;;6.22;2.17;;;;;;;;;;4990719;28;21712;-59
2023/06/15 10:59:41;;;;;;;5.20;2.20;;;;;;;;;;4992126;28;20034;-60
2023/06/15 11:02:26;;;;;;;4.15;2.05;;;;;;;;;;4988815;28;20143;-59
2023/06/15 11:04:52;;;;;;;4.88;2.08;;;;;;;;;;4990866;28;20180;-60
2023/06/15 11:07:27;;;;;;;4.82;2.13;;;;;;;;;;4990459;28;20132;-60
2023/06/15 11:09:56;;;;;;;4.07;1.70;;;;;;;;;;4989775;28;20095;-60
2023/06/15 11:12:38;;;;;;;3.78;1.90;;;;;;;;;;4990311;28;20112;-60
2023/06/15 11:15:05;;;;;;;4.13;1.77;;;;;;;;;;4989870;28;20038;-60
2023/06/15 11:17:32;;;;;;;3.90;1.90;;;;;;;;;;4997846;28;20893;-59
2023/06/15 11:19:58;;;;;;;5.75;1.60;;;;;;;;;;4997601;28;20038;-59
2023/06/15 11:22:27;;;;;;;4.60;2.10;;;;;;;;;;4997766;28;20038;-60
2023/06/15 11:24:57;;;;;;;5.68;2.08;;;;;;;;;;4997953;28;20049;-59
2023/06/15 11:27:25;;;;;;;4.10;2.63;;;;;;;;;;4997235;28;20052;-60
2023/06/15 11:29:58;;;;;;;3.30;1.80;;;;;;;;;;4998482;28;20026;-60
2023/06/15 11:32:27;;;;;;;5.85;2.05;;;;;;;;;;4997605;28;20034;-60
2023/06/15 11:34:57;;;;;;;4.65;1.98;;;;;;;;;;4998380;28;20065;-60
2023/06/15 11:37:27;;;;;;;5.47;2.22;;;;;;;;;;4997501;28;20068;-59
2023/06/15 11:39:53;;;;;;;5.50;2.20;;;;;;;;;;4997481;28;20600;-60
2023/06/15 11:42:20;;;;;;;4.82;2.03;;;;;;;;;;4998420;28;20075;-60
2023/06/15 11:44:49;;;;;;;3.83;1.88;;;;;;;;;;4997824;28;20072;-60
2023/06/15 11:47:16;;;;;;;4.80;2.45;;;;;;;;;;4998288;28;20036;-59
2023/06/15 11:49:42;;;;;;;5.43;2.17;;;;;;;;;;4998137;28;20113;-60
2023/06/15 11:52:08;;;;;;;5.05;2.10;;;;;;;;;;4998062;28;20746;-59
2023/06/15 11:54:35;;;;;;;5.05;1.90;;;;;;;;;;4992398;28;20378;-60
2023/06/15 11:57:01;;;;;;;4.68;2.00;;;;;;;;;;4998301;28;20030;-59
2023/06/15 11:59:27;;;;;;;5.40;2.40;;;;;;;;;;4997629;28;20033;-60
2023/06/15 12:02:00;;;;;;;4.00;2.05;;;;;;;;;;4997687;28;20034;-60
2023/06/15 12:04:30;;;;;;;3.78;1.55;;;;;;;;;;4997958;28;20029;-59
2023/06/15 12:06:57;;;;;;;7.07;2.58;;;;;;;;;;4997675;28;20025;-59
2023/06/15 12:09:23;;;;;;;4.03;1.92;;;;;;;;;;4997600;28;20045;-60
2023/06/15 12:11:49;;;;;;;4.50;2.15;;;;;;;;;;4996959;28;20148;-60
2023/06/15 12:14:20;;;;;;;4.70;1.98;;;;;;;;;;4997037;28;20042;-60
2023/06/15 12:16:52;;;;;;;6.70;2.60;;;;;;;;;;4996682;28;20043;-60
2023/06/15 12:19:18;;;;;;;5.93;1.98;;;;;;;;;;4996962;28;20039;-59
2023/06/15 12:21:44;;;;;;;5.70;2.22;;;;;;;;;;4996617;28;21783;-60
2023/06/15 12:24:14;;;;;;;8.38;2.22;;;;;;;;;;4997029;28;20029;-59
2023/06/15 12:26:40;;;;;;;8.07;2.10;;;;;;;;;;4997635;28;20509;-60
2023/06/15 12:29:16;;;;;;;5.53;2.05;;;;;;;;;;4997565;28;20037;-60
2023/06/15 12:31:42;;;;;;;5.57;2.10;;;;;;;;;;4996500;28;20025;-59
2023/06/15 12:34:12;;;;;;;4.68;2.50;;;;;;;;;;4994298;28;20076;-60
2023/06/15 12:36:38;;;;;;;4.38;2.13;;;;;;;;;;4994789;28;20038;-59
2023/06/15 12:39:11;;;;;;;5.72;2.20;;;;;;;;;;4995694;28;20041;-59
2023/06/15 12:41:43;;;;;;;6.65;2.25;;;;;;;;;;4996398;28;20041;-59
2023/06/15 12:44:10;;;;;;;6.10;2.15;;;;;;;;;;4995719;28;20555;-60
2023/06/15 12:46:40;;;;;;;6.20;3.00;;;;;;;;;;4997540;28;20659;-59
2023/06/15 12:49:07;;;;;;;5.70;2.35;;;;;;;;;;4996896;28;20796;-60
2023/06/15 12:51:33;;;;;;;5.63;2.28;;;;;;;;;;4996605;28;20720;-60
2023/06/15 12:54:01;;;;;;;5.43;2.30;;;;;;;;;;4997406;28;20046;-59
2023/06/15 12:56:27;;;;;;;5.05;2.60;;;;;;;;;;4997053;28;20060;-60
2023/06/15 12:58:53;;;;;;;6.28;2.53;;;;;;;;;;4996627;28;20030;-60
2023/06/15 13:01:20;;;;;;;7.15;2.45;;;;;;;;;;4996978;28;20132;-60
2023/06/15 13:03:46;;;;;;;5.88;2.80;;;;;;;;;;4996618;28;20456;-61
2023/06/15 13:06:12;;;;;;;5.32;2.33;;;;;;;;;;4994846;28;20034;-60
2023/06/15 13:08:38;;;;;;;6.78;2.33;;;;;;;;;;4996415;28;20055;-60
2023/06/15 13:11:04;;;;;;;6.03;2.80;;;;;;;;;;4996870;28;20030;-60
2023/06/15 13:13:31;;;;;;;6.95;2.60;;;;;;;;;;4996407;28;20029;-59
2023/06/15 13:15:57;;;;;;;5.82;2.42;;;;;;;;;;4995734;28;20079;-60
2023/06/15 13:18:23;;;;;;;8.48;2.40;;;;;;;;;;4996158;28;20702;-60
2023/06/15 13:20:49;;;;;;;5.63;2.33;;;;;;;;;;4996391;28;20038;-60
2023/06/15 13:23:15;;;;;;;9.52;2.05;;;;;;;;;;4997032;28;20634;-60
2023/06/15 13:25:41;;;;;;;5.75;2.72;;;;;;;;;;4994383;28;20053;-59
2023/06/15 13:28:07;;;;;;;5.57;2.40;;;;;;;;;;4995926;28;20038;-60
2023/06/15 13:30:33;;;;;;;6.38;2.25;;;;;;;;;;4995908;28;20504;-60
2023/06/15 13:32:59;;;;;;;6.25;2.47;;;;;;;;;;4993402;28;20044;-60
2023/06/15 13:35:26;;;;;;;7.53;2.50;;;;;;;;;;4994738;28;20034;-59
2023/06/15 13:37:52;;;;;;;7.82;2.45;;;;;;;;;;4998762;28;20377;-60
2023/06/15 13:40:18;;;;;;;7.28;2.72;;;;;;;;;;4998894;28;20037;-60
2023/06/15 13:42:44;;;;;;;5.47;2.20;;;;;;;;;;4998658;28;20100;-60
2023/06/15 13:45:12;;;;;;;5.22;2.00;;;;;;;;;;4997632;28;20073;-60
2023/06/15 13:47:40;;;;;;;6.57;2.30;;;;;;;;;;4996913;28;20026;-60
2023/06/15 13:50:07;;;;;;;5.88;2.30;;;;;;;;;;4997664;28;20038;-60
2023/06/15 13:52:34;;;;;;;5.78;2.28;;;;;;;;;;4998617;28;20034;-60
2023/06/15 13:55:00;;;;;;;6.22;2.35;;;;;;;;;;4996810;28;20381;-60
2023/06/15 13:57:26;;;;;;;5.97;2.35;;;;;;;;;;4997999;28;20058;-59
2023/06/15 13:59:53;;;;;;;6.22;1.90;;;;;;;;;;4998087;28;20057;-60
2023/06/15 14:02:19;;;;;;;8.98;2.63;;;;;;;;;;4997662;28;20088;-59
2023/06/15 14:04:46;;;;;;;6.68;2.20;;;;;;;;;;4998033;28;20114;-59
2023/06/15 14:07:13;;;;;;;3.97;2.15;;;;;;;;;;4998253;28;20542;-59
2023/06/15 14:09:39;;;;;;;10.20;2.42;;;;;;;;;;4998057;28;20037;-59
2023/06/15 14:12:06;;;;;;;8.63;2.67;;;;;;;;;;4998109;28;20030;-60
2023/06/15 14:14:33;;;;;;;5.68;1.95;;;;;;;;;;4997470;28;20036;-59
2023/06/15 14:16:59;;;;;;;4.43;2.28;;;;;;;;;;4998989;28;20049;-60
2023/06/15 14:19:26;;;;;;;8.52;2.63;;;;;;;;;;4998007;28;20041;-60
2023/06/15 14:21:52;;;;;;;4.43;2.03;;;;;;;;;;4999004;28;20397;-59
2023/06/15 14:24:19;;;;;;;5.28;2.40;;;;;;;;;;4997956;28;20084;-59
2023/06/15 14:26:45;;;;;;;5.30;2.22;;;;;;;;;;4999743;28;20382;-59
2023/06/15 14:29:15;;;;;;;5.43;2.40;;;;;;;;;;4998884;28;20068;-59
2023/06/15 14:31:49;;;;;;;6.40;2.50;;;;;;;;;;4999649;28;20026;-59
2023/06/15 14:34:22;;;;;;;4.93;2.10;;;;;;;;;;4998735;28;20156;-60
2023/06/15 14:36:48;;;;;;;;;;;;;;;;;;4999275;28;20029;-59
2023/06/15 14:39:15;;;;;;;4.43;2.20;;;;;;;;;;4998651;28;20412;-59
2023/06/15 14:41:41;;;;;;;5.82;2.30;;;;;;;;;;4998792;28;20081;-59
2023/06/15 14:44:09;;;;;;;6.22;2.03;;;;;;;;;;4997032;28;20034;-60